Home > Products > Valid Products > TAF

000
FTUS44 KSJT 221700
TAFABI
TAF
KABI 221728Z 2218/2318 33011G19KT P6SM FEW150 SCT250
     FM230000 VRB05KT P6SM BKN200
     FM230600 03011KT P6SM VCSH BKN070
     FM231000 03010KT P6SM VCSH BKN020=



000
FTUS44 KSJT 221700
TAFJCT
TAF
KJCT 221728Z 2218/2318 27011KT P6SM FEW150 SCT250
     FM230000 VRB05KT P6SM BKN250
     FM231000 VRB05KT P6SM VCSH BKN070 BKN150
     FM231500 02007KT P6SM VCSH BKN016=



000
FTUS44 KSJT 221700
TAFSJT
TAF
KSJT 221728Z 2218/2318 29011G19KT P6SM SCT150 BKN250
     FM230000 VRB06KT P6SM BKN250
     FM230800 VRB05KT P6SM VCSH BKN080 BKN150
     FM231300 01011KT P6SM VCSH BKN020=



000
FTUS44 KSJT 221500 AAA
TAFABI
TAF AMD
KABI 221510Z 2215/2312 30011KT P6SM SCT250
     FM221800 36012G20KT P6SM SCT250
     FM222300 VRB05KT P6SM BKN250
     FM230900 03011KT P6SM -RA BKN070=



000
FTUS44 KSJT 221300 AAA
TAFJCT
TAF AMD
KJCT 221345Z 2214/2312 25007KT P6SM OVC008 WS020/27040KT
     FM221500 26005KT P6SM SCT014
     FM221700 29013G20KT P6SM SCT250
     FM222300 VRB05KT P6SM BKN250=



000
FTUS44 KSJT 221300 AAA
TAFJCT
TAF AMD
KJCT 221345Z 2214/2312 25007KT P6SM OVC008 WS020/27040KT
     FM221500 26005KT P6SM SCT014
     FM221700 29013G20KT P6SM SCT250
     FM222300 VRB05KT P6SM BKN250=



000
FTUS44 KSJT 221100
TAFJCT
TAF
KJCT 221136Z 2212/2312 25007KT P6SM OVC009
     FM221500 26005KT P6SM SCT014
     FM221700 29013G20KT P6SM SCT250
     FM222300 VRB05KT P6SM BKN250=



000
FTUS44 KSJT 221100
TAFABI
TAF
KABI 221136Z 2212/2312 25012KT P6SM SCT250
     FM221800 36012G20KT P6SM SCT250
     FM222300 VRB05KT P6SM BKN250
     FM230900 03011KT P6SM -RA BKN070=



000
FTUS44 KSJT 221100
TAFSJT
TAF
KSJT 221136Z 2212/2312 24012G18KT P6SM BKN250
     FM221800 33012G22KT P6SM SCT250
     FM222300 VRB05KT P6SM BKN250=



000
FTUS44 KSJT 221100 AAA
TAFJCT
TAF AMD
KJCT 221109Z 2211/2306 22005KT P6SM BKN009
     FM221500 26005KT P6SM SCT014=



000
FTUS44 KSJT 221100 AAB
TAFABI
TAF AMD
KABI 221108Z 2211/2306 21010KT P6SM SCT015 BKN250
     FM221200 26013KT P6SM SCT250
     FM221800 34011KT P6SM SCT250=



000
FTUS44 KSJT 221000 AAA
TAFABI
TAF AMD
KABI 221043Z 2211/2306 21012KT P6SM SCT015 BKN250
     FM221200 26013KT P6SM SCT250
     FM221800 34011KT P6SM SCT250=



000
FTUS44 KSJT 220700 AAA
TAFSJT
TAF AMD
KSJT 220731Z 2208/2306 21008KT P6SM BKN250
     FM221200 23012KT P6SM SCT015 BKN250
     FM221800 31015G23KT P6SM SCT250=



000
FTUS44 KSJT 220700 AAA
TAFSJT
TAF AMD
KSJT 220731Z 2208/2306 21008KT P6SM BKN250
     FM221200 23012KT P6SM SCT015 BKN250
     FM221800 31015G23KT P6SM SCT250=



000
FTUS44 KSJT 220500
TAFSJT
TAF
KSJT 220539Z 2206/2306 21013KT P6SM BKN012 BKN250
      TEMPO 2206/2210 SCT012
     FM221200 23012KT P6SM SCT015 BKN250
     FM221800 31015G23KT P6SM SCT250=



000
FTUS44 KSJT 220500
TAFJCT
TAF
KJCT 220539Z 2206/2306 21005KT P6SM BKN012 BKN250
     FM221500 26005KT P6SM SCT014=



000
FTUS44 KSJT 220500
TAFABI
TAF
KABI 220539Z 2206/2306 20017G26KT P6SM SCT015 BKN250
     FM221200 26013KT P6SM SCT250
     FM221800 34011KT P6SM SCT250=



000
FTUS44 KSJT 220100 AAA
TAFJCT
TAF AMD
KJCT 220111Z 2201/2224 21005KT P6SM BKN012
     FM221500 26005KT P6SM SCT014=



000
FTUS44 KSJT 220100 AAA
TAFJCT
TAF AMD
KJCT 220111Z 2201/2224 21005KT P6SM BKN012
     FM221500 26005KT P6SM SCT014=



000
FTUS44 KSJT 212300
TAFABI
TAF
KABI 212338Z 2200/2224 19015G23KT P6SM SKC
     FM221200 26012KT P6SM SCT250
     FM221800 34011KT P6SM SCT250=



000
FTUS44 KSJT 212300
TAFJCT
TAF
KJCT 212338Z 2200/2224 21010KT P6SM SKC
     FM220200 21005KT P6SM BKN012
     FM221500 26005KT P6SM SCT014=



000
FTUS44 KSJT 212300
TAFSJT
TAF
KSJT 212338Z 2200/2224 20012KT P6SM FEW250
     FM220600 22012KT P6SM BKN015
     FM221200 22009KT P6SM SCT015 BKN250=



000
FTUS44 KSJT 212100 AAB
TAFJCT
TAF AMD
KJCT 212145Z 2122/2218 21011KT P6SM SCT025
     FM220700 21005KT 5SM BR OVC012=



000
FTUS44 KSJT 212100 AAB
TAFJCT
TAF AMD
KJCT 212145Z 2122/2218 21011KT P6SM SCT025
     FM220700 21005KT 5SM BR OVC012=



000
FTUS44 KSJT 211900 AAA
TAFJCT
TAF AMD
KJCT 211922Z 2119/2218 21010KT P6SM OVC015
     FM212100 21009KT P6SM SCT025
     FM220700 21005KT 5SM BR OVC012=



000
FTUS44 KSJT 211900 AAA
TAFJCT
TAF AMD
KJCT 211922Z 2119/2218 21010KT P6SM OVC015
     FM212100 21009KT P6SM SCT025
     FM220700 21005KT 5SM BR OVC012=



000
FTUS44 KSJT 211700
TAFJCT
TAF
KJCT 211739Z 2118/2218 21010KT P6SM OVC010
     FM212000 21009KT P6SM SCT025
     FM220700 21005KT 5SM BR OVC012=



000
FTUS44 KSJT 211700
TAFSJT
TAF
KSJT 211739Z 2118/2218 21014G20KT P6SM FEW022
     FM212300 21011KT P6SM FEW250
     FM220400 22014G20KT P6SM SCT250
     FM221000 22012KT P6SM SCT015 BKN250=



000
FTUS44 KSJT 211700
TAFABI
TAF
KABI 211739Z 2118/2218 20015G23KT P6SM FEW025
     FM220900 23014G21KT P6SM SCT025=



000
FTUS44 KSJT 211500 AAA
TAFSJT
TAF AMD
KSJT 211558Z 2116/2212 22012G20KT P6SM BKN015
     FM211900 21013G20KT P6SM SCT025=



000
FTUS44 KSJT 211500 AAB
TAFABI
TAF AMD
KABI 211557Z 2116/2212 20013G22KT P6SM OVC015
     FM211900 20015G23KT P6SM SCT025=



000
FTUS44 KSJT 211500 AAA
TAFABI
TAF AMD
KABI 211524Z 2115/2212 20012KT P6SM OVC015
     FM211900 20015G23KT P6SM SCT025=



000
FTUS44 KSJT 211300 AAC
TAFJCT
TAF AMD
KJCT 211348Z 2114/2212 18006KT P6SM OVC009
      TEMPO 2114/2115 OVC010
     FM211500 21010KT P6SM OVC010
     FM211900 21011KT P6SM SCT025=



000
FTUS44 KSJT 211300 AAC
TAFJCT
TAF AMD
KJCT 211348Z 2114/2212 18006KT P6SM OVC009
      TEMPO 2114/2115 OVC010
     FM211500 21010KT P6SM OVC010
     FM211900 21011KT P6SM SCT025=



000
FTUS44 KSJT 211300 AAB
TAFJCT
TAF AMD
KJCT 211346Z 2114/2212 20006KT P6SM OVC009
      TEMPO 2114/2115 OVC010
     FM211900 21008KT P6SM SCT025=



000
FTUS44 KSJT 211300 AAB
TAFJCT
TAF AMD
KJCT 211346Z 2114/2212 20006KT P6SM OVC009
      TEMPO 2114/2115 OVC010
     FM211900 21008KT P6SM SCT025=



000
FTUS44 KSJT 211300 AAA
TAFJCT
TAF AMD
KJCT 211322Z 2113/2212 18006KT P6SM OVC011
      TEMPO 2113/2114 OVC009
     FM211900 21008KT P6SM SCT025=



000
FTUS44 KSJT 211300 AAA
TAFJCT
TAF AMD
KJCT 211322Z 2113/2212 18006KT P6SM OVC011
      TEMPO 2113/2114 OVC009
     FM211900 21008KT P6SM SCT025=



000
FTUS44 KSJT 211100
TAFSJT
TAF
KSJT 211123Z 2112/2212 20008KT P6SM OVC011
      TEMPO 2112/2113 BKN009
     FM211300 20007KT P6SM BKN011
     FM211900 21013G20KT P6SM SCT025=



000
FTUS44 KSJT 211100
TAFABI
TAF
KABI 211123Z 2112/2212 17012KT P6SM OVC015
     FM211900 20015G23KT P6SM SCT025=



000
FTUS44 KSJT 211100
TAFJCT
TAF
KJCT 211123Z 2112/2212 18006KT P6SM OVC014
      TEMPO 2112/2113 OVC009
     FM211900 21008KT P6SM SCT025=



000
FTUS44 KSJT 211000 AAB
TAFJCT
TAF AMD
KJCT 211050Z 2111/2206 18006KT P6SM OVC014
      TEMPO 2111/2113 OVC009
     FM211900 21008KT P6SM SCT025=



000
FTUS44 KSJT 211000 AAB
TAFJCT
TAF AMD
KJCT 211050Z 2111/2206 18006KT P6SM OVC014
      TEMPO 2111/2113 OVC009
     FM211900 21008KT P6SM SCT025=



000
FTUS44 KSJT 211000 AAC
TAFSJT
TAF AMD
KSJT 211048Z 2111/2206 19008KT P6SM OVC010
      TEMPO 2111/2112 BKN009
     FM211200 20007KT P6SM BKN008
     FM211500 20009KT P6SM BKN015
     FM211800 21013G20KT P6SM SCT025=



000
FTUS44 KSJT 211000 AAC
TAFSJT
TAF AMD
KSJT 211048Z 2111/2206 19008KT P6SM OVC010
      TEMPO 2111/2112 BKN009
     FM211200 20007KT P6SM BKN008
     FM211500 20009KT P6SM BKN015
     FM211800 21013G20KT P6SM SCT025=



000
FTUS44 KSJT 210900 AAB
TAFSJT
TAF AMD
KSJT 210911Z 2109/2206 20012KT P6SM OVC012
      TEMPO 2109/2110 BKN009
     FM211000 20007KT P6SM BKN008
     FM211500 20009KT P6SM BKN015
     FM211800 21013G20KT P6SM SCT025=



000
FTUS44 KSJT 210900 AAA
TAFJCT
TAF AMD
KJCT 210910Z 2109/2206 18006KT P6SM BKN015
     FM211100 19004KT 5SM BR OVC009
     FM211500 21004KT P6SM BKN012
     FM211900 21008KT P6SM SCT025=



000
FTUS44 KSJT 210700 AAA
TAFSJT
TAF AMD
KSJT 210732Z 2108/2206 15004KT P6SM OVC017
      TEMPO 2108/2110 BKN009
     FM211000 20007KT P6SM BKN008
     FM211500 20009KT P6SM BKN015
     FM211800 21013G20KT P6SM SCT025=



000
FTUS44 KSJT 210700 AAA
TAFABI
TAF AMD
KABI 210721Z 2107/2206 15012KT P6SM SCT011
      TEMPO 2107/2110 BKN010
     FM211000 18008KT P6SM OVC010
     FM211900 20015G23KT P6SM SCT025=



000
FTUS44 KSJT 210500 RRA
TAFSJT
TAF
KSJT 210522Z 2105/2124 17004KT P6SM BKN020
     FM210900 20007KT P6SM OVC015
     FM211000 20007KT P6SM BKN008
     FM211500 20009KT P6SM BKN015
     FM211800 21013G20KT P6SM SCT025=



000
FTUS44 KSJT 210500 RRA
TAFJCT
TAF
KJCT 210522Z 2105/2124 14008KT P6SM BKN015
     FM210900 19004KT 5SM BR OVC008
     FM211500 21004KT P6SM BKN012
     FM211900 21008KT P6SM SCT025=



000
FTUS44 KSJT 210500 RRA
TAFABI
TAF
KABI 210522Z 2105/2124 15008KT P6SM BKN029
     FM211000 19008KT P6SM OVC015
     FM211900 20015G23KT P6SM SCT025=



000
FTUS44 KSJT 210300 AAA
TAFJCT
TAF AMD
KJCT 210348Z 2104/2124 14008KT P6SM BKN025
     FM210600 19003KT 5SM BR OVC008
     FM211000 19004KT 2SM BR OVC004
     FM211600 21004KT 5SM BR BKN012
     FM211900 21008KT P6SM SCT025=



000
FTUS44 KSJT 210300 AAA
TAFJCT
TAF AMD
KJCT 210348Z 2104/2124 14008KT P6SM BKN025
     FM210600 19003KT 5SM BR OVC008
     FM211000 19004KT 2SM BR OVC004
     FM211600 21004KT 5SM BR BKN012
     FM211900 21008KT P6SM SCT025=



000
FTUS44 KSJT 210200 AAB
TAFSJT
TAF AMD
KSJT 210216Z 2102/2124 17004KT P6SM BKN025
     FM210900 20007KT P6SM OVC015
     FM211800 21013G20KT P6SM SCT025=



000
FTUS44 KSJT 210000 AAA
TAFSJT
TAF AMD
KSJT 210021Z 2100/2124 17005KT P6SM BKN025
     FM210200 17004KT P6SM SCT030
     FM210400 17004KT P6SM BKN025
     FM210900 20007KT P6SM OVC015
     FM211800 21013G20KT P6SM SCT025=



000
FTUS44 KSJT 202300 RRA
TAFJCT
TAF
KJCT 202342Z 2100/2124 14008KT P6SM SKC
     FM210900 19003KT 5SM BR OVC008
     FM211000 19004KT 2SM BR OVC004
     FM211600 21004KT 5SM BR BKN012
     FM211900 21008KT P6SM SCT025=



000
FTUS44 KSJT 202300 RRA
TAFSJT
TAF
KSJT 202342Z 2100/2124 17005KT P6SM BKN035
     FM210200 17004KT P6SM SCT030
     FM210400 17004KT P6SM BKN025
     FM210900 20007KT P6SM OVC015
     FM211800 21013G20KT P6SM SCT025=



000
FTUS44 KSJT 202300 RRA
TAFABI
TAF
KABI 202342Z 2100/2124 15008KT P6SM BKN025
      TEMPO 2100/2104 SCT025
     FM211000 19008KT P6SM OVC015
     FM211900 20015G23KT P6SM SCT025=



000
FTUS44 KSJT 201700
TAFSJT
TAF
KSJT 201727Z 2018/2118 17008KT P6SM BKN015
     FM202000 17007KT P6SM BKN025
     FM210900 20007KT P6SM OVC015=



000
FTUS44 KSJT 201700
TAFJCT
TAF
KJCT 201727Z 2018/2118 14008KT P6SM BKN015
     FM210900 19003KT 6SM BR OVC010=



000
FTUS44 KSJT 201700
TAFABI
TAF
KABI 201727Z 2018/2118 VRB05KT 6SM BR OVC018
     FM201900 17008KT P6SM BKN025
     FM211000 19008KT P6SM OVC015=



000
FTUS44 KSJT 201400 AAA
TAFJCT
TAF AMD
KJCT 201452Z 2015/2112 VRB04KT 6SM BR OVC012
     FM201800 14008KT P6SM BKN015=



000
FTUS44 KSJT 201100
TAFJCT
TAF
KJCT 201138Z 2012/2112 VRB04KT 4SM BR OVC010
     FM201800 14008KT P6SM BKN015=



000
FTUS44 KSJT 201100
TAFABI
TAF
KABI 201138Z 2012/2112 VRB03KT 6SM BR OVC015
     FM201800 17009KT P6SM BKN015=



000
FTUS44 KSJT 201100
TAFSJT
TAF
KSJT 201138Z 2012/2112 VRB03KT P6SM OVC015
     FM201800 17008KT P6SM BKN015=



000
FTUS44 KSJT 200500
TAFABI
TAF
KABI 200520Z 2006/2106 VRB03KT 6SM BR OVC015
     FM201500 17006KT P6SM BKN250=



000
FTUS44 KSJT 200500
TAFJCT
TAF
KJCT 200520Z 2006/2106 VRB04KT P6SM OVC015
     FM200900 02002KT 4SM BR OVC015
     FM201200 VRB04KT 2SM BR OVC015
     FM201500 VRB04KT P6SM BKN015
     FM201700 15003KT P6SM BKN250=



000
FTUS44 KSJT 200500
TAFSJT
TAF
KSJT 200520Z 2006/2106 VRB03KT P6SM OVC015
     FM201200 VRB03KT 4SM BR OVC015
     FM201500 17006KT P6SM BKN250=



000
FTUS44 KSJT 200200 AAA
TAFJCT
TAF AMD
KJCT 200215Z 2002/2024 VRB05KT P6SM SKC
     FM200400 VRB06KT P6SM BKN015
     FM201700 VRB03KT P6SM BKN250=



000
FTUS44 KSJT 192300
TAFABI
TAF
KABI 192320Z 2000/2024 VRB05KT P6SM OVC015
     FM201500 18006KT P6SM BKN250=



000
FTUS44 KSJT 192300
TAFJCT
TAF
KJCT 192320Z 2000/2024 VRB05KT P6SM SKC
     FM200200 VRB06KT P6SM BKN015
     FM201700 VRB03KT P6SM BKN250=



000
FTUS44 KSJT 192300
TAFSJT
TAF
KSJT 192320Z 2000/2024 VRB04KT P6SM OVC015
     FM201800 18006KT P6SM BKN250=



000
FTUS44 KSJT 192100 AAB
TAFSJT
TAF AMD
KSJT 192139Z 1922/2018 VRB06KT P6SM OVC017
     FM192300 VRB06KT P6SM SCT025 BKN035
     FM200200 VRB06KT P6SM BKN025=



000
FTUS44 KSJT 192100 AAB
TAFABI
TAF AMD
KABI 192128Z 1921/2018 VRB06KT P6SM OVC014
     FM192300 VRB06KT P6SM SCT025 BKN035
     FM200200 VRB06KT P6SM BKN025=



000
FTUS44 KSJT 191900 AAA
TAFJCT
TAF AMD
KJCT 191952Z 1920/2018 VRB06KT P6SM OVC016
     FM192100 VRB06KT P6SM SCT025
     FM200200 VRB06KT P6SM BKN025=



000
FTUS44 KSJT 191900 AAA
TAFJCT
TAF AMD
KJCT 191952Z 1920/2018 VRB06KT P6SM OVC016
     FM192100 VRB06KT P6SM SCT025
     FM200200 VRB06KT P6SM BKN025=



000
FTUS44 KSJT 191800 AAA
TAFSJT
TAF AMD
KSJT 191839Z 1919/2018 VRB06KT P6SM OVC011
     FM192100 VRB06KT P6SM BKN025
     FM192300 VRB06KT P6SM SCT025 BKN035
     FM200200 VRB06KT P6SM BKN025=



000
FTUS44 KSJT 191800 AAA
TAFABI
TAF AMD
KABI 191838Z 1919/2018 VRB06KT P6SM OVC011
     FM192100 VRB06KT P6SM BKN025
     FM192300 VRB06KT P6SM SCT025 BKN035
     FM200200 VRB06KT P6SM BKN025=



    US Dept of Commerce
    National Oceanic and Atmospheric Administration
    National Weather Service
    1325 East West Highway
    Silver Spring, MD 20910
    Page Author: NWS Internet Services Team
Disclaimer
Information Quality
Credits
Glossary
Privacy Policy
Freedom of Information Act (FOIA)
About Us
Career Opportunities